sensor_id;sensor_type;location;lat;lon;timestamp;pressure;altitude;pressure_sealevel;temperature;humidity
58739;BME280;44512;53.046;18.604;2022-12-29T00:00:43;101137.16;;;7.27;68.65
58739;BME280;44512;53.046;18.604;2022-12-29T00:11:15;101128.42;;;7.25;69.33
58739;BME280;44512;53.046;18.604;2022-12-29T00:21:40;101112.59;;;7.22;70.08
58739;BME280;44512;53.046;18.604;2022-12-29T00:32:10;101101.13;;;7.28;70.33
58739;BME280;44512;53.046;18.604;2022-12-29T00:42:37;101088.34;;;7.39;70.36
58739;BME280;44512;53.046;18.604;2022-12-29T00:53:05;101085.64;;;7.39;70.46
58739;BME280;44512;53.046;18.604;2022-12-29T01:03:35;101094.41;;;7.41;70.62
58739;BME280;44512;53.046;18.604;2022-12-29T01:14:03;101085.31;;;7.42;70.85
58739;BME280;44512;53.046;18.604;2022-12-29T01:24:31;101069.98;;;7.42;71.05
58739;BME280;44512;53.046;18.604;2022-12-29T01:35:02;101072.87;;;7.41;71.24
58739;BME280;44512;53.046;18.604;2022-12-29T01:45:28;101076.91;;;7.37;71.36
58739;BME280;44512;53.046;18.604;2022-12-29T01:56:00;101070.35;;;7.39;71.48
58739;BME280;44512;53.046;18.604;2022-12-29T02:06:29;101056.71;;;7.41;71.35
58739;BME280;44512;53.046;18.604;2022-12-29T02:58:46;100969.76;;;7.63;70.42
58739;BME280;44512;53.046;18.604;2022-12-29T03:19:49;100960.49;;;7.66;69.73
58739;BME280;44512;53.046;18.604;2022-12-29T03:30:12;100972.42;;;7.71;69.33
58739;BME280;44512;53.046;18.604;2022-12-29T03:40:43;100964.02;;;7.66;68.81
58739;BME280;44512;53.046;18.604;2022-12-29T03:51:08;100941.14;;;7.62;68.57
58739;BME280;44512;53.046;18.604;2022-12-29T04:01:37;100944.85;;;7.61;68.41
58739;BME280;44512;53.046;18.604;2022-12-29T04:12:05;100934.41;;;7.58;68.64
58739;BME280;44512;53.046;18.604;2022-12-29T04:22:33;100918.31;;;7.50;68.93
58739;BME280;44512;53.046;18.604;2022-12-29T04:33:02;100924.54;;;7.50;69.26
58739;BME280;44512;53.046;18.604;2022-12-29T04:43:30;100909.34;;;7.57;69.30
58739;BME280;44512;53.046;18.604;2022-12-29T04:53:59;100895.34;;;7.62;69.26
58739;BME280;44512;53.046;18.604;2022-12-29T05:04:27;100901.38;;;7.64;69.21
58739;BME280;44512;53.046;18.604;2022-12-29T05:14:55;100898.16;;;7.69;69.09
58739;BME280;44512;53.046;18.604;2022-12-29T05:25:24;100893.60;;;7.69;68.85
58739;BME280;44512;53.046;18.604;2022-12-29T05:35:52;100898.23;;;7.61;68.60
58739;BME280;44512;53.046;18.604;2022-12-29T05:46:21;100858.66;;;7.61;68.76
58739;BME280;44512;53.046;18.604;2022-12-29T05:56:49;100846.33;;;7.67;68.68
58739;BME280;44512;53.046;18.604;2022-12-29T06:07:18;100834.34;;;7.69;68.48
58739;BME280;44512;53.046;18.604;2022-12-29T06:17:46;100836.68;;;7.72;68.45
58739;BME280;44512;53.046;18.604;2022-12-29T06:28:14;100840.33;;;7.79;68.31
58739;BME280;44512;53.046;18.604;2022-12-29T06:38:42;100858.20;;;7.80;67.70
58739;BME280;44512;53.046;18.604;2022-12-29T06:49:11;100834.77;;;7.81;67.59
58739;BME280;44512;53.046;18.604;2022-12-29T06:59:39;100834.59;;;7.82;67.35
58739;BME280;44512;53.046;18.604;2022-12-29T07:10:08;100858.47;;;7.86;66.92
58739;BME280;44512;53.046;18.604;2022-12-29T07:20:39;100854.82;;;7.78;66.28
58739;BME280;44512;53.046;18.604;2022-12-29T07:31:06;100862.72;;;7.80;66.59
58739;BME280;44512;53.046;18.604;2022-12-29T07:41:33;100859.49;;;7.84;66.28
58739;BME280;44512;53.046;18.604;2022-12-29T07:52:01;100862.18;;;7.84;66.22
58739;BME280;44512;53.046;18.604;2022-12-29T08:02:30;100850.22;;;7.87;66.11
58739;BME280;44512;53.046;18.604;2022-12-29T08:12:58;100855.07;;;7.92;66.04
58739;BME280;44512;53.046;18.604;2022-12-29T08:23:27;100813.92;;;7.98;66.08
58739;BME280;44512;53.046;18.604;2022-12-29T08:33:55;100849.91;;;8.05;66.25
58739;BME280;44512;53.046;18.604;2022-12-29T08:44:23;100838.77;;;8.08;65.57
58739;BME280;44512;53.046;18.604;2022-12-29T08:54:52;100843.42;;;8.14;65.11
58739;BME280;44512;53.046;18.604;2022-12-29T09:05:20;100855.53;;;8.18;65.15
58739;BME280;44512;53.046;18.604;2022-12-29T09:15:48;100845.69;;;8.25;65.18
58739;BME280;44512;53.046;18.604;2022-12-29T09:26:17;100838.37;;;8.34;65.03
58739;BME280;44512;53.046;18.604;2022-12-29T09:41:32;100815.53;;;8.45;64.51
58739;BME280;44512;53.046;18.604;2022-12-29T09:51:38;100822.88;;;8.51;64.24
58739;BME280;44512;53.046;18.604;2022-12-29T10:12:06;100814.33;;;8.62;63.87
58739;BME280;44512;53.046;18.604;2022-12-29T10:22:21;100816.48;;;8.67;63.58
58739;BME280;44512;53.046;18.604;2022-12-29T10:42:43;100791.91;;;8.76;62.98
58739;BME280;44512;53.046;18.604;2022-12-29T10:52:47;100788.46;;;8.82;62.68
58739;BME280;44512;53.046;18.604;2022-12-29T11:13:12;100783.34;;;8.87;62.53
58739;BME280;44512;53.046;18.604;2022-12-29T11:23:21;100768.25;;;8.93;62.55
58739;BME280;44512;53.046;18.604;2022-12-29T11:33:23;100758.38;;;9.00;62.54
58739;BME280;44512;53.046;18.604;2022-12-29T11:43:31;100753.05;;;9.07;62.30
58739;BME280;44512;53.046;18.604;2022-12-29T11:53:45;100748.76;;;9.12;62.47
58739;BME280;44512;53.046;18.604;2022-12-29T12:04:01;100735.98;;;9.21;62.06
58739;BME280;44512;53.046;18.604;2022-12-29T12:14:12;100724.40;;;9.27;62.11
58739;BME280;44512;53.046;18.604;2022-12-29T12:34:38;100721.08;;;9.47;62.35
58739;BME280;44512;53.046;18.604;2022-12-29T13:25:47;100725.02;;;9.94;62.08
58739;BME280;44512;53.046;18.604;2022-12-29T13:35:57;100724.84;;;10.02;62.03
58739;BME280;44512;53.046;18.604;2022-12-29T13:46:12;100734.49;;;10.11;61.97
58739;BME280;44512;53.046;18.604;2022-12-29T13:56:30;100746.60;;;10.15;61.77
58739;BME280;44512;53.046;18.604;2022-12-29T14:06:34;100756.00;;;10.19;61.85
58739;BME280;44512;53.046;18.604;2022-12-29T14:16:41;100746.19;;;10.18;61.65
58739;BME280;44512;53.046;18.604;2022-12-29T14:26:44;100755.74;;;10.14;61.71
58739;BME280;44512;53.046;18.604;2022-12-29T14:36:55;100769.02;;;10.09;61.83
58739;BME280;44512;53.046;18.604;2022-12-29T14:47:01;100752.38;;;10.12;61.79
58739;BME280;44512;53.046;18.604;2022-12-29T14:57:57;100752.25;;;10.20;61.74
58739;BME280;44512;53.046;18.604;2022-12-29T15:07:22;100758.69;;;10.19;61.77
58739;BME280;44512;53.046;18.604;2022-12-29T15:17:29;100751.59;;;10.18;61.92
58739;BME280;44512;53.046;18.604;2022-12-29T15:27:53;100751.59;;;10.18;62.05
58739;BME280;44512;53.046;18.604;2022-12-29T15:38:20;100754.95;;;10.20;62.06
58739;BME280;44512;53.046;18.604;2022-12-29T15:48:43;100755.45;;;10.24;61.98
58739;BME280;44512;53.046;18.604;2022-12-29T16:09:44;100745.59;;;10.23;61.85
58739;BME280;44512;53.046;18.604;2022-12-29T16:20:16;100758.28;;;10.22;61.60
58739;BME280;44512;53.046;18.604;2022-12-29T16:30:36;100768.23;;;10.15;61.59
58739;BME280;44512;53.046;18.604;2022-12-29T16:41:05;100767.40;;;10.14;61.42
58739;BME280;44512;53.046;18.604;2022-12-29T16:51:37;100775.31;;;10.16;60.99
58739;BME280;44512;53.046;18.604;2022-12-29T17:02:07;100784.45;;;10.15;60.69
58739;BME280;44512;53.046;18.604;2022-12-29T17:12:33;100778.84;;;10.16;60.51
58739;BME280;44512;53.046;18.604;2022-12-29T17:22:59;100796.95;;;10.16;59.89
58739;BME280;44512;53.046;18.604;2022-12-29T17:33:31;100801.48;;;10.09;59.65
58739;BME280;44512;53.046;18.604;2022-12-29T17:43:57;100800.19;;;10.05;59.41
58739;BME280;44512;53.046;18.604;2022-12-29T17:54:24;100802.64;;;10.00;59.38
58739;BME280;44512;53.046;18.604;2022-12-29T18:04:52;100822.98;;;9.96;59.39
58739;BME280;44512;53.046;18.604;2022-12-29T18:15:23;100839.78;;;9.91;59.40
58739;BME280;44512;53.046;18.604;2022-12-29T18:25:56;100839.09;;;9.82;59.75
58739;BME280;44512;53.046;18.604;2022-12-29T18:36:18;100837.80;;;9.78;59.89
58739;BME280;44512;53.046;18.604;2022-12-29T18:46:46;100844.81;;;9.73;59.90
58739;BME280;44512;53.046;18.604;2022-12-29T18:57:14;100845.19;;;9.70;59.97
58739;BME280;44512;53.046;18.604;2022-12-29T19:07:42;100845.12;;;9.63;60.17
58739;BME280;44512;53.046;18.604;2022-12-29T19:18:20;100852.57;;;9.61;60.28
58739;BME280;44512;53.046;18.604;2022-12-29T19:28:39;100857.97;;;9.61;60.29
58739;BME280;44512;53.046;18.604;2022-12-29T19:39:08;100855.26;;;9.61;60.21
58739;BME280;44512;53.046;18.604;2022-12-29T19:49:36;100871.67;;;9.59;60.22
58739;BME280;44512;53.046;18.604;2022-12-29T20:00:05;100870.85;;;9.59;60.50
58739;BME280;44512;53.046;18.604;2022-12-29T20:10:33;100876.05;;;9.60;60.82
58739;BME280;44512;53.046;18.604;2022-12-29T20:21:07;100879.23;;;9.64;61.15
58739;BME280;44512;53.046;18.604;2022-12-29T20:31:33;100887.59;;;9.69;61.44
58739;BME280;44512;53.046;18.604;2022-12-29T20:41:58;100885.16;;;9.74;61.53
58739;BME280;44512;53.046;18.604;2022-12-29T21:02:56;100905.24;;;9.86;61.78
58739;BME280;44512;53.046;18.604;2022-12-29T21:13:23;100893.02;;;9.90;61.90
58739;BME280;44512;53.046;18.604;2022-12-29T21:23:52;100889.11;;;9.93;62.05
58739;BME280;44512;53.046;18.604;2022-12-29T21:34:20;100894.52;;;9.93;62.07
58739;BME280;44512;53.046;18.604;2022-12-29T21:44:48;100916.98;;;9.94;62.01
58739;BME280;44512;53.046;18.604;2022-12-29T21:55:17;100913.61;;;9.91;61.85
58739;BME280;44512;53.046;18.604;2022-12-29T22:05:45;100923.17;;;9.87;61.80
58739;BME280;44512;53.046;18.604;2022-12-29T22:16:13;100912.73;;;9.84;61.81
58739;BME280;44512;53.046;18.604;2022-12-29T22:26:42;100941.16;;;9.80;61.78
58739;BME280;44512;53.046;18.604;2022-12-29T22:37:10;100941.28;;;9.72;61.76
58739;BME280;44512;53.046;18.604;2022-12-29T22:47:39;100936.62;;;9.66;61.82
58739;BME280;44512;53.046;18.604;2022-12-29T22:58:07;100944.28;;;9.62;61.83
58739;BME280;44512;53.046;18.604;2022-12-29T23:08:37;100949.02;;;9.60;61.92
58739;BME280;44512;53.046;18.604;2022-12-29T23:19:04;100946.16;;;9.62;62.00
58739;BME280;44512;53.046;18.604;2022-12-29T23:29:32;100951.99;;;9.65;61.96
58739;BME280;44512;53.046;18.604;2022-12-29T23:40:00;100946.42;;;9.67;61.94
58739;BME280;44512;53.046;18.604;2022-12-29T23:50:29;100954.89;;;9.64;62.03
